Time;durP1;ratioP1;P1;durP2;ratioP2;P2;SDS_P1;SDS_P2;PMS_P1;PMS_P2;Temp;Humidity;BMP_temperature;BMP_pressure;BME280_temperature;BME280_humidity;BME280_pressure;Samples;Min_cycle;Max_cycle;Signal;HPM_P1;HPM_P2
2022/06/09 19:40:58;;;;;;;3.20;0.88;;;17.60;87.30;;;;;;5863847;23;20028;-78
2022/06/09 19:43:24;;;;;;;3.57;1.03;;;17.60;87.30;;;;;;4907169;29;20052;-78
2022/06/09 19:45:51;;;;;;;2.33;0.80;;;17.50;87.50;;;;;;4908198;29;20432;-79
2022/06/09 19:48:17;;;;;;;5.03;1.10;;;17.50;88.00;;;;;;4906829;29;20202;-78
2022/06/09 19:50:46;;;;;;;2.67;0.70;;;17.40;88.30;;;;;;4908514;29;20063;-78
2022/06/09 19:53:15;;;;;;;3.28;1.30;;;17.30;88.90;;;;;;4908183;29;20032;-78
2022/06/09 19:55:44;;;;;;;3.00;0.93;;;17.30;89.00;;;;;;4908279;29;20032;-79
2022/06/09 19:58:16;;;;;;;4.32;1.10;;;17.30;89.00;;;;;;4908040;29;20028;-79
2022/06/09 20:00:42;;;;;;;3.30;0.95;;;17.30;88.70;;;;;;4907800;29;20144;-78
2022/06/09 20:03:08;;;;;;;2.88;0.80;;;17.30;89.00;;;;;;4907900;29;20032;-79
2022/06/09 20:05:34;;;;;;;3.35;0.82;;;17.30;88.80;;;;;;4908546;29;20058;-78
2022/06/09 20:08:00;;;;;;;3.88;0.95;;;17.30;88.40;;;;;;4906307;29;20063;-78
2022/06/09 20:10:34;;;;;;;3.83;0.70;;;17.30;88.30;;;;;;4907997;29;20020;-79
2022/06/09 20:13:03;;;;;;;2.47;0.80;;;17.20;88.50;;;;;;4907819;29;20043;-77
2022/06/09 20:15:31;;;;;;;3.53;1.02;;;17.20;88.50;;;;;;4907581;29;20043;-77
2022/06/09 20:18:01;;;;;;;2.97;0.93;;;17.10;88.60;;;;;;4908191;29;20045;-78
2022/06/09 20:20:31;;;;;;;4.65;1.35;;;17.10;88.50;;;;;;4906881;29;20306;-78
2022/06/09 20:22:59;;;;;;;4.28;1.00;;;17.10;87.90;;;;;;4907302;29;20051;-79
2022/06/09 20:25:28;;;;;;;2.55;1.08;;;17.00;88.00;;;;;;4892022;29;20033;-78
2022/06/09 20:27:57;;;;;;;3.60;1.13;;;16.90;87.60;;;;;;4908054;29;20028;-78
2022/06/09 20:30:26;;;;;;;3.38;1.00;;;16.90;87.50;;;;;;4890501;29;20356;-79
2022/06/09 20:32:52;;;;;;;3.28;1.00;;;16.90;87.60;;;;;;4907865;29;20033;-78
2022/06/09 20:35:18;;;;;;;4.63;1.25;;;16.80;87.50;;;;;;4907086;29;20314;-78
2022/06/09 20:37:46;;;;;;;2.63;0.90;;;16.70;88.00;;;;;;4906395;29;20035;-78
2022/06/09 20:40:20;;;;;;;3.97;1.17;;;16.70;87.80;;;;;;4907401;29;20033;-78
2022/06/09 20:42:46;;;;;;;2.83;1.02;;;16.70;88.50;;;;;;4903096;29;20049;-77
2022/06/09 20:45:12;;;;;;;3.70;1.20;;;16.60;89.60;;;;;;4887868;29;20037;-78
2022/06/09 20:47:41;;;;;;;2.42;1.05;;;16.50;90.30;;;;;;4903703;29;20097;-77
2022/06/09 20:50:09;;;;;;;;;;;16.40;90.50;;;;;;4889022;29;20206;-76
2022/06/09 20:52:37;;;;;;;4.88;1.13;;;16.40;90.60;;;;;;4903299;29;19953;-79
2022/06/09 20:55:04;;;;;;;2.97;1.20;;;16.30;90.90;;;;;;4888405;29;20039;-81
2022/06/09 20:57:30;;;;;;;3.40;1.00;;;16.30;90.90;;;;;;4888967;29;20069;-78
2022/06/09 20:59:56;;;;;;;2.50;0.90;;;16.30;90.50;;;;;;4888704;29;20048;-78
2022/06/09 21:02:25;;;;;;;4.78;1.48;;;16.30;90.50;;;;;;4886615;29;20112;-79
2022/06/09 21:04:51;;;;;;;2.45;1.05;;;16.30;90.40;;;;;;4888986;29;20028;-77
2022/06/09 21:07:17;;;;;;;5.55;1.20;;;16.30;90.30;;;;;;4887011;29;20048;-77
2022/06/09 21:09:43;;;;;;;4.93;1.17;;;16.30;90.00;;;;;;4887583;29;20045;-79
2022/06/09 21:20:23;;;;;;;4.72;1.05;;;16.40;90.00;;;;;;4910030;29;20072;-81
2022/06/09 21:22:49;;;;;;;3.28;1.10;;;16.40;90.20;;;;;;4911789;29;20065;-78
2022/06/09 21:25:15;;;;;;;3.25;1.10;;;16.40;90.30;;;;;;4910473;29;20076;-78
2022/06/09 21:27:42;;;;;;;5.38;1.13;;;16.40;90.50;;;;;;4911528;29;20175;-79
2022/06/09 21:30:10;;;;;;;4.72;0.95;;;16.30;90.40;;;;;;4910421;29;20095;-77
2022/06/09 21:32:36;;;;;;;5.03;1.20;;;16.20;90.60;;;;;;4911055;29;20044;-78
2022/06/09 21:35:05;;;;;;;3.65;1.13;;;16.20;90.70;;;;;;4912273;29;20040;-77
2022/06/09 21:37:31;;;;;;;4.00;1.27;;;16.10;90.90;;;;;;4910941;29;20032;-78
2022/06/09 21:39:56;;;;;;;3.55;1.42;;;16.10;90.90;;;;;;4909744;29;20041;-79
2022/06/09 21:42:23;;;;;;;3.17;1.10;;;16.10;91.00;;;;;;4910437;29;20048;-79
2022/06/09 21:44:49;;;;;;;2.28;0.90;;;16.10;91.00;;;;;;4892237;29;20043;-78
2022/06/09 21:47:15;;;;;;;5.15;1.40;;;16.00;91.00;;;;;;4891268;29;20326;-79
2022/06/09 21:49:42;;;;;;;2.88;0.90;;;16.00;91.00;;;;;;4892375;29;20375;-79
2022/06/09 21:52:08;;;;;;;1.88;0.80;;;15.90;91.20;;;;;;4891190;29;20045;-78
2022/06/09 21:54:34;;;;;;;4.28;0.88;;;15.80;91.20;;;;;;4892091;29;20036;-77
2022/06/09 21:57:00;;;;;;;2.85;0.90;;;15.80;91.20;;;;;;4891920;29;20261;-78
2022/06/09 21:59:26;;;;;;;3.42;0.95;;;15.80;91.10;;;;;;4891401;29;20024;-78
2022/06/09 22:01:51;;;;;;;3.28;1.00;;;15.80;91.20;;;;;;4891581;29;20109;-77
2022/06/09 22:04:17;;;;;;;3.20;1.10;;;15.80;91.20;;;;;;4890222;29;20279;-78
2022/06/09 22:06:44;;;;;;;3.80;0.90;;;15.80;91.40;;;;;;4891744;29;20033;-78
2022/06/09 22:09:12;;;;;;;3.00;0.95;;;15.70;91.50;;;;;;4891327;29;20045;-78
2022/06/09 22:11:38;;;;;;;4.53;1.30;;;15.60;91.70;;;;;;4891791;29;20052;-77
2022/06/09 22:14:04;;;;;;;4.82;1.40;;;15.60;91.80;;;;;;4891491;29;20041;-78
2022/06/09 22:16:29;;;;;;;4.05;1.08;;;15.60;91.70;;;;;;4889547;29;20044;-77
2022/06/09 22:18:56;;;;;;;4.22;1.02;;;15.50;91.70;;;;;;4891902;29;20334;-77
2022/06/09 22:21:21;;;;;;;4.13;1.10;;;15.50;91.80;;;;;;4891326;29;20303;-79
2022/06/09 22:23:47;;;;;;;2.50;1.00;;;15.50;91.90;;;;;;4892251;29;20028;-78
2022/06/09 22:26:13;;;;;;;4.00;1.65;;;15.40;92.00;;;;;;4891470;29;20037;-77
2022/06/09 22:28:39;;;;;;;2.90;1.25;;;15.40;92.30;;;;;;4891916;29;20100;-77
2022/06/09 22:31:05;;;;;;;3.47;1.00;;;15.30;92.50;;;;;;4890836;29;20053;-77
2022/06/09 22:33:31;;;;;;;2.03;0.90;;;15.30;92.80;;;;;;4890167;29;20032;-78
2022/06/09 22:35:57;;;;;;;4.88;1.10;;;15.10;92.70;;;;;;4890970;29;20322;-77
2022/06/09 22:38:23;;;;;;;3.80;1.10;;;15.10;92.60;;;;;;4890662;29;20025;-78
2022/06/09 22:40:49;;;;;;;4.30;1.35;;;15.00;92.90;;;;;;4890963;29;20313;-79
2022/06/09 22:43:14;;;;;;;4.57;1.10;;;15.00;93.10;;;;;;4896374;29;20045;-78
2022/06/09 22:45:41;;;;;;;4.78;1.20;;;14.90;93.20;;;;;;4909259;29;20113;-79
2022/06/09 22:48:13;;;;;;;4.22;1.10;;;14.80;93.30;;;;;;4908275;29;20024;-79
2022/06/09 22:50:39;;;;;;;3.60;1.08;;;14.70;93.20;;;;;;4909683;29;20087;-79
2022/06/09 22:53:05;;;;;;;3.53;0.88;;;14.60;93.50;;;;;;4909528;29;20047;-79
2022/06/09 22:58:17;;;;;;;4.78;1.50;;;14.50;93.70;;;;;;4908880;29;20060;-78
2022/06/09 23:00:44;;;;;;;4.72;1.58;;;14.40;94.20;;;;;;4906749;29;20066;-78
